sensor_id;sensor_type;location;lat;lon;timestamp;P1;durP1;ratioP1;P2;durP2;ratioP2
42518;SDS011;28147;47.520;18.920;2022-09-02T00:00:45;1.27;;;0.45;;
42518;SDS011;28147;47.520;18.920;2022-09-02T00:03:13;1.63;;;0.73;;
42518;SDS011;28147;47.520;18.920;2022-09-02T00:05:39;1.02;;;0.50;;
42518;SDS011;28147;47.520;18.920;2022-09-02T00:08:05;2.03;;;0.80;;
42518;SDS011;28147;47.520;18.920;2022-09-02T00:10:32;1.45;;;0.65;;
42518;SDS011;28147;47.520;18.920;2022-09-02T00:13:00;3.08;;;0.75;;
42518;SDS011;28147;47.520;18.920;2022-09-02T00:15:25;0.93;;;0.47;;
42518;SDS011;28147;47.520;18.920;2022-09-02T00:17:51;1.80;;;0.60;;
42518;SDS011;28147;47.520;18.920;2022-09-02T00:20:17;0.80;;;0.55;;
42518;SDS011;28147;47.520;18.920;2022-09-02T00:22:42;1.13;;;0.73;;
42518;SDS011;28147;47.520;18.920;2022-09-02T00:25:09;1.20;;;1.02;;
42518;SDS011;28147;47.520;18.920;2022-09-02T00:27:34;1.95;;;0.55;;
42518;SDS011;28147;47.520;18.920;2022-09-02T00:30:00;2.15;;;0.80;;
42518;SDS011;28147;47.520;18.920;2022-09-02T00:32:26;0.68;;;0.60;;
42518;SDS011;28147;47.520;18.920;2022-09-02T00:34:52;1.88;;;0.57;;
42518;SDS011;28147;47.520;18.920;2022-09-02T00:37:19;1.75;;;0.65;;
42518;SDS011;28147;47.520;18.920;2022-09-02T00:39:45;0.57;;;0.45;;
42518;SDS011;28147;47.520;18.920;2022-09-02T00:42:10;0.80;;;0.50;;
42518;SDS011;28147;47.520;18.920;2022-09-02T00:44:36;1.13;;;0.52;;
42518;SDS011;28147;47.520;18.920;2022-09-02T00:47:01;0.75;;;0.52;;
42518;SDS011;28147;47.520;18.920;2022-09-02T00:49:28;1.48;;;0.50;;
42518;SDS011;28147;47.520;18.920;2022-09-02T00:51:58;1.02;;;0.40;;
42518;SDS011;28147;47.520;18.920;2022-09-02T00:54:25;1.67;;;0.45;;
42518;SDS011;28147;47.520;18.920;2022-09-02T00:56:53;1.00;;;0.65;;
42518;SDS011;28147;47.520;18.920;2022-09-02T00:59:28;1.38;;;0.47;;
42518;SDS011;28147;47.520;18.920;2022-09-02T01:02:15;2.17;;;0.50;;
42518;SDS011;28147;47.520;18.920;2022-09-02T01:04:41;0.88;;;0.50;;
42518;SDS011;28147;47.520;18.920;2022-09-02T01:07:10;1.75;;;0.55;;
42518;SDS011;28147;47.520;18.920;2022-09-02T01:09:37;2.92;;;0.63;;
42518;SDS011;28147;47.520;18.920;2022-09-02T01:12:03;1.23;;;0.52;;
42518;SDS011;28147;47.520;18.920;2022-09-02T01:14:29;1.98;;;1.08;;
42518;SDS011;28147;47.520;18.920;2022-09-02T01:16:56;1.35;;;0.43;;
42518;SDS011;28147;47.520;18.920;2022-09-02T01:19:37;0.63;;;0.32;;
42518;SDS011;28147;47.520;18.920;2022-09-02T01:22:14;0.85;;;0.30;;
42518;SDS011;28147;47.520;18.920;2022-09-02T01:24:43;2.40;;;0.60;;
42518;SDS011;28147;47.520;18.920;2022-09-02T01:27:09;0.93;;;0.40;;
42518;SDS011;28147;47.520;18.920;2022-09-02T01:29:39;1.58;;;0.50;;
42518;SDS011;28147;47.520;18.920;2022-09-02T01:32:05;3.58;;;0.73;;
42518;SDS011;28147;47.520;18.920;2022-09-02T01:34:30;1.30;;;0.40;;
42518;SDS011;28147;47.520;18.920;2022-09-02T01:36:56;0.93;;;0.50;;
42518;SDS011;28147;47.520;18.920;2022-09-02T01:39:21;1.15;;;0.40;;
42518;SDS011;28147;47.520;18.920;2022-09-02T01:41:46;1.02;;;0.52;;
42518;SDS011;28147;47.520;18.920;2022-09-02T01:44:12;1.58;;;0.45;;
42518;SDS011;28147;47.520;18.920;2022-09-02T01:46:40;0.82;;;0.50;;
42518;SDS011;28147;47.520;18.920;2022-09-02T01:49:05;2.83;;;1.08;;
42518;SDS011;28147;47.520;18.920;2022-09-02T01:51:31;0.73;;;0.30;;
42518;SDS011;28147;47.520;18.920;2022-09-02T01:53:57;0.75;;;0.50;;
42518;SDS011;28147;47.520;18.920;2022-09-02T01:56:22;0.88;;;0.50;;
42518;SDS011;28147;47.520;18.920;2022-09-02T01:58:48;0.98;;;0.43;;
42518;SDS011;28147;47.520;18.920;2022-09-02T02:01:13;1.08;;;0.47;;
42518;SDS011;28147;47.520;18.920;2022-09-02T02:03:39;1.88;;;0.52;;
42518;SDS011;28147;47.520;18.920;2022-09-02T02:06:08;1.00;;;0.70;;
42518;SDS011;28147;47.520;18.920;2022-09-02T02:08:38;1.00;;;0.40;;
42518;SDS011;28147;47.520;18.920;2022-09-02T02:11:04;0.75;;;0.43;;
42518;SDS011;28147;47.520;18.920;2022-09-02T02:13:30;1.00;;;0.40;;
42518;SDS011;28147;47.520;18.920;2022-09-02T02:15:56;0.35;;;0.22;;
42518;SDS011;28147;47.520;18.920;2022-09-02T02:18:21;0.90;;;0.50;;
42518;SDS011;28147;47.520;18.920;2022-09-02T02:20:47;0.43;;;0.38;;
42518;SDS011;28147;47.520;18.920;2022-09-02T02:23:12;2.42;;;0.60;;
42518;SDS011;28147;47.520;18.920;2022-09-02T02:25:38;3.60;;;0.63;;
42518;SDS011;28147;47.520;18.920;2022-09-02T02:28:03;0.60;;;0.38;;
42518;SDS011;28147;47.520;18.920;2022-09-02T02:30:29;0.90;;;0.40;;
42518;SDS011;28147;47.520;18.920;2022-09-02T02:32:55;0.40;;;0.30;;
42518;SDS011;28147;47.520;18.920;2022-09-02T02:35:20;1.45;;;0.50;;
42518;SDS011;28147;47.520;18.920;2022-09-02T02:37:46;0.60;;;0.50;;
42518;SDS011;28147;47.520;18.920;2022-09-02T02:40:15;1.75;;;0.50;;
42518;SDS011;28147;47.520;18.920;2022-09-02T02:42:43;1.42;;;0.75;;
42518;SDS011;28147;47.520;18.920;2022-09-02T02:45:09;1.95;;;0.40;;
42518;SDS011;28147;47.520;18.920;2022-09-02T02:47:37;0.98;;;0.47;;
42518;SDS011;28147;47.520;18.920;2022-09-02T02:50:05;0.77;;;0.40;;
42518;SDS011;28147;47.520;18.920;2022-09-02T02:52:32;0.30;;;0.30;;
42518;SDS011;28147;47.520;18.920;2022-09-02T02:54:58;1.75;;;0.55;;
42518;SDS011;28147;47.520;18.920;2022-09-02T02:57:23;0.98;;;0.40;;
42518;SDS011;28147;47.520;18.920;2022-09-02T02:59:49;1.52;;;0.40;;
42518;SDS011;28147;47.520;18.920;2022-09-02T03:02:14;1.00;;;0.57;;
42518;SDS011;28147;47.520;18.920;2022-09-02T03:04:41;0.63;;;0.40;;
42518;SDS011;28147;47.520;18.920;2022-09-02T03:07:06;0.40;;;0.20;;
42518;SDS011;28147;47.520;18.920;2022-09-02T03:09:33;2.00;;;0.95;;
42518;SDS011;28147;47.520;18.920;2022-09-02T03:11:59;1.38;;;0.47;;
42518;SDS011;28147;47.520;18.920;2022-09-02T03:14:24;0.95;;;0.40;;
42518;SDS011;28147;47.520;18.920;2022-09-02T03:16:50;1.33;;;0.55;;
42518;SDS011;28147;47.520;18.920;2022-09-02T03:19:16;0.68;;;0.40;;
42518;SDS011;28147;47.520;18.920;2022-09-02T03:21:41;0.63;;;0.30;;
42518;SDS011;28147;47.520;18.920;2022-09-02T03:24:08;0.43;;;0.40;;
42518;SDS011;28147;47.520;18.920;2022-09-02T03:26:35;1.58;;;0.73;;
42518;SDS011;28147;47.520;18.920;2022-09-02T03:29:00;1.55;;;0.47;;
42518;SDS011;28147;47.520;18.920;2022-09-02T03:31:26;0.20;;;0.20;;
42518;SDS011;28147;47.520;18.920;2022-09-02T03:33:52;0.50;;;0.38;;
42518;SDS011;28147;47.520;18.920;2022-09-02T03:36:25;1.25;;;0.63;;
42518;SDS011;28147;47.520;18.920;2022-09-02T03:38:52;1.10;;;0.63;;
42518;SDS011;28147;47.520;18.920;2022-09-02T03:41:18;0.68;;;0.40;;
42518;SDS011;28147;47.520;18.920;2022-09-02T03:43:44;0.57;;;0.30;;
42518;SDS011;28147;47.520;18.920;2022-09-02T03:46:10;0.90;;;0.47;;
42518;SDS011;28147;47.520;18.920;2022-09-02T03:48:36;1.42;;;0.82;;
42518;SDS011;28147;47.520;18.920;2022-09-02T03:51:01;1.15;;;0.50;;
42518;SDS011;28147;47.520;18.920;2022-09-02T03:53:28;2.00;;;0.45;;
42518;SDS011;28147;47.520;18.920;2022-09-02T03:55:53;0.28;;;0.20;;
42518;SDS011;28147;47.520;18.920;2022-09-02T03:58:19;1.45;;;0.40;;
42518;SDS011;28147;47.520;18.920;2022-09-02T04:00:50;1.05;;;0.40;;
42518;SDS011;28147;47.520;18.920;2022-09-02T04:03:16;0.98;;;0.50;;
42518;SDS011;28147;47.520;18.920;2022-09-02T04:05:44;1.10;;;0.45;;
42518;SDS011;28147;47.520;18.920;2022-09-02T04:08:11;2.60;;;0.77;;
42518;SDS011;28147;47.520;18.920;2022-09-02T04:10:37;0.77;;;0.43;;
42518;SDS011;28147;47.520;18.920;2022-09-02T04:13:02;0.85;;;0.65;;
42518;SDS011;28147;47.520;18.920;2022-09-02T04:15:28;0.95;;;0.63;;
42518;SDS011;28147;47.520;18.920;2022-09-02T04:17:53;2.25;;;0.80;;
42518;SDS011;28147;47.520;18.920;2022-09-02T04:20:20;1.90;;;0.40;;
42518;SDS011;28147;47.520;18.920;2022-09-02T04:22:47;2.92;;;0.90;;
42518;SDS011;28147;47.520;18.920;2022-09-02T04:25:12;0.70;;;0.28;;
42518;SDS011;28147;47.520;18.920;2022-09-02T04:27:38;1.17;;;0.50;;
42518;SDS011;28147;47.520;18.920;2022-09-02T04:30:04;1.45;;;0.60;;
42518;SDS011;28147;47.520;18.920;2022-09-02T04:32:32;0.38;;;0.30;;
42518;SDS011;28147;47.520;18.920;2022-09-02T04:34:57;0.93;;;0.40;;
42518;SDS011;28147;47.520;18.920;2022-09-02T04:37:23;2.17;;;0.43;;
42518;SDS011;28147;47.520;18.920;2022-09-02T04:39:49;1.85;;;0.50;;
42518;SDS011;28147;47.520;18.920;2022-09-02T04:42:14;1.23;;;0.40;;
42518;SDS011;28147;47.520;18.920;2022-09-02T04:44:40;2.17;;;0.57;;
42518;SDS011;28147;47.520;18.920;2022-09-02T04:47:05;0.85;;;0.30;;
42518;SDS011;28147;47.520;18.920;2022-09-02T04:49:31;0.93;;;0.55;;
42518;SDS011;28147;47.520;18.920;2022-09-02T04:51:57;0.80;;;0.43;;
42518;SDS011;28147;47.520;18.920;2022-09-02T04:54:24;0.85;;;0.40;;
42518;SDS011;28147;47.520;18.920;2022-09-02T04:56:49;1.05;;;0.47;;
42518;SDS011;28147;47.520;18.920;2022-09-02T04:59:14;2.25;;;0.77;;
42518;SDS011;28147;47.520;18.920;2022-09-02T05:01:40;0.55;;;0.40;;
42518;SDS011;28147;47.520;18.920;2022-09-02T05:04:07;0.75;;;0.40;;
42518;SDS011;28147;47.520;18.920;2022-09-02T05:06:33;0.57;;;0.25;;
42518;SDS011;28147;47.520;18.920;2022-09-02T05:09:00;1.55;;;1.27;;
42518;SDS011;28147;47.520;18.920;2022-09-02T05:11:27;1.25;;;0.57;;
42518;SDS011;28147;47.520;18.920;2022-09-02T05:13:54;2.25;;;0.40;;
42518;SDS011;28147;47.520;18.920;2022-09-02T05:16:27;1.02;;;0.50;;
42518;SDS011;28147;47.520;18.920;2022-09-02T05:18:56;0.63;;;0.40;;
42518;SDS011;28147;47.520;18.920;2022-09-02T05:21:22;2.10;;;0.47;;
42518;SDS011;28147;47.520;18.920;2022-09-02T05:23:48;1.90;;;0.63;;
42518;SDS011;28147;47.520;18.920;2022-09-02T05:26:15;0.30;;;0.30;;
42518;SDS011;28147;47.520;18.920;2022-09-02T05:28:42;0.95;;;0.60;;
42518;SDS011;28147;47.520;18.920;2022-09-02T05:31:09;1.00;;;0.50;;
42518;SDS011;28147;47.520;18.920;2022-09-02T05:33:37;2.03;;;0.47;;
42518;SDS011;28147;47.520;18.920;2022-09-02T05:36:06;1.88;;;0.60;;
42518;SDS011;28147;47.520;18.920;2022-09-02T05:38:33;0.22;;;0.22;;
42518;SDS011;28147;47.520;18.920;2022-09-02T05:41:02;1.45;;;0.50;;
42518;SDS011;28147;47.520;18.920;2022-09-02T05:43:30;1.35;;;0.93;;
42518;SDS011;28147;47.520;18.920;2022-09-02T05:45:56;0.52;;;0.38;;
42518;SDS011;28147;47.520;18.920;2022-09-02T05:48:23;0.50;;;0.50;;
42518;SDS011;28147;47.520;18.920;2022-09-02T05:51:07;2.35;;;0.60;;
42518;SDS011;28147;47.520;18.920;2022-09-02T05:53:33;1.23;;;0.60;;
42518;SDS011;28147;47.520;18.920;2022-09-02T05:55:58;2.22;;;1.02;;
42518;SDS011;28147;47.520;18.920;2022-09-02T05:58:28;0.95;;;0.52;;
42518;SDS011;28147;47.520;18.920;2022-09-02T06:00:55;0.90;;;0.30;;
42518;SDS011;28147;47.520;18.920;2022-09-02T06:03:20;2.42;;;1.13;;
42518;SDS011;28147;47.520;18.920;2022-09-02T06:05:55;2.83;;;0.70;;
42518;SDS011;28147;47.520;18.920;2022-09-02T06:08:22;0.30;;;0.30;;
42518;SDS011;28147;47.520;18.920;2022-09-02T06:10:47;1.15;;;0.70;;
42518;SDS011;28147;47.520;18.920;2022-09-02T06:13:13;0.75;;;0.40;;
42518;SDS011;28147;47.520;18.920;2022-09-02T06:15:42;1.63;;;0.55;;
42518;SDS011;28147;47.520;18.920;2022-09-02T06:18:08;1.20;;;0.60;;
42518;SDS011;28147;47.520;18.920;2022-09-02T06:20:34;0.68;;;0.50;;
42518;SDS011;28147;47.520;18.920;2022-09-02T06:25:29;1.52;;;0.60;;
42518;SDS011;28147;47.520;18.920;2022-09-02T06:27:55;1.10;;;0.50;;
42518;SDS011;28147;47.520;18.920;2022-09-02T06:30:20;1.13;;;0.40;;
42518;SDS011;28147;47.520;18.920;2022-09-02T06:32:45;2.05;;;0.73;;
42518;SDS011;28147;47.520;18.920;2022-09-02T06:35:11;4.40;;;0.85;;
42518;SDS011;28147;47.520;18.920;2022-09-02T06:37:38;3.17;;;0.60;;
42518;SDS011;28147;47.520;18.920;2022-09-02T06:40:05;1.02;;;0.68;;
42518;SDS011;28147;47.520;18.920;2022-09-02T06:42:31;1.02;;;0.45;;
42518;SDS011;28147;47.520;18.920;2022-09-02T06:44:56;5.70;;;0.65;;
42518;SDS011;28147;47.520;18.920;2022-09-02T06:47:22;1.30;;;0.50;;
42518;SDS011;28147;47.520;18.920;2022-09-02T06:49:48;3.85;;;0.80;;
42518;SDS011;28147;47.520;18.920;2022-09-02T06:52:13;1.77;;;0.40;;
42518;SDS011;28147;47.520;18.920;2022-09-02T06:54:39;0.73;;;0.47;;
42518;SDS011;28147;47.520;18.920;2022-09-02T06:57:04;3.95;;;0.85;;
42518;SDS011;28147;47.520;18.920;2022-09-02T06:59:29;1.38;;;0.50;;
42518;SDS011;28147;47.520;18.920;2022-09-02T07:01:55;1.15;;;0.50;;
42518;SDS011;28147;47.520;18.920;2022-09-02T07:04:21;3.25;;;0.90;;
42518;SDS011;28147;47.520;18.920;2022-09-02T07:07:06;0.90;;;0.43;;
42518;SDS011;28147;47.520;18.920;2022-09-02T07:09:32;0.50;;;0.50;;
42518;SDS011;28147;47.520;18.920;2022-09-02T07:11:59;0.75;;;0.47;;
42518;SDS011;28147;47.520;18.920;2022-09-02T07:14:26;1.55;;;0.50;;
42518;SDS011;28147;47.520;18.920;2022-09-02T07:16:54;2.50;;;0.65;;
42518;SDS011;28147;47.520;18.920;2022-09-02T07:19:21;1.35;;;0.50;;
42518;SDS011;28147;47.520;18.920;2022-09-02T07:21:47;1.10;;;0.50;;
42518;SDS011;28147;47.520;18.920;2022-09-02T07:24:13;1.27;;;0.60;;
42518;SDS011;28147;47.520;18.920;2022-09-02T07:26:39;1.88;;;0.95;;
42518;SDS011;28147;47.520;18.920;2022-09-02T07:29:05;0.73;;;0.45;;
42518;SDS011;28147;47.520;18.920;2022-09-02T07:31:33;1.30;;;0.50;;
42518;SDS011;28147;47.520;18.920;2022-09-02T07:34:03;1.05;;;0.57;;
42518;SDS011;28147;47.520;18.920;2022-09-02T07:36:31;0.85;;;0.50;;
42518;SDS011;28147;47.520;18.920;2022-09-02T07:38:59;1.90;;;0.70;;
42518;SDS011;28147;47.520;18.920;2022-09-02T07:41:25;2.03;;;0.60;;
42518;SDS011;28147;47.520;18.920;2022-09-02T07:43:50;1.48;;;0.60;;
42518;SDS011;28147;47.520;18.920;2022-09-02T07:46:16;1.00;;;0.50;;
42518;SDS011;28147;47.520;18.920;2022-09-02T07:48:42;0.80;;;0.60;;
42518;SDS011;28147;47.520;18.920;2022-09-02T07:51:08;0.70;;;0.50;;
42518;SDS011;28147;47.520;18.920;2022-09-02T07:53:34;3.42;;;0.90;;
42518;SDS011;28147;47.520;18.920;2022-09-02T07:56:00;1.30;;;0.50;;
42518;SDS011;28147;47.520;18.920;2022-09-02T07:58:27;0.47;;;0.40;;
42518;SDS011;28147;47.520;18.920;2022-09-02T08:00:53;0.60;;;0.47;;
42518;SDS011;28147;47.520;18.920;2022-09-02T08:03:22;2.05;;;0.88;;
42518;SDS011;28147;47.520;18.920;2022-09-02T08:05:49;0.80;;;0.50;;
42518;SDS011;28147;47.520;18.920;2022-09-02T08:08:15;2.20;;;0.80;;
42518;SDS011;28147;47.520;18.920;2022-09-02T08:10:46;2.28;;;1.25;;
42518;SDS011;28147;47.520;18.920;2022-09-02T08:13:14;0.40;;;0.40;;
42518;SDS011;28147;47.520;18.920;2022-09-02T08:15:39;0.90;;;0.65;;
42518;SDS011;28147;47.520;18.920;2022-09-02T08:18:05;2.00;;;0.80;;
42518;SDS011;28147;47.520;18.920;2022-09-02T08:20:32;2.20;;;0.85;;
42518;SDS011;28147;47.520;18.920;2022-09-02T08:22:58;0.80;;;0.60;;
42518;SDS011;28147;47.520;18.920;2022-09-02T08:25:23;2.58;;;0.77;;
42518;SDS011;28147;47.520;18.920;2022-09-02T08:27:49;3.55;;;0.95;;
42518;SDS011;28147;47.520;18.920;2022-09-02T08:30:17;4.00;;;1.67;;
42518;SDS011;28147;47.520;18.920;2022-09-02T08:32:42;3.05;;;0.63;;
42518;SDS011;28147;47.520;18.920;2022-09-02T08:35:08;3.10;;;0.70;;
42518;SDS011;28147;47.520;18.920;2022-09-02T08:37:34;1.65;;;0.60;;
42518;SDS011;28147;47.520;18.920;2022-09-02T08:44:19;1.40;;;0.70;;
42518;SDS011;28147;47.520;18.920;2022-09-02T08:46:47;5.47;;;1.30;;
42518;SDS011;28147;47.520;18.920;2022-09-02T08:49:21;1.48;;;0.80;;
42518;SDS011;28147;47.520;18.920;2022-09-02T08:52:00;1.70;;;0.63;;
42518;SDS011;28147;47.520;18.920;2022-09-02T08:56:59;1.05;;;0.65;;
42518;SDS011;28147;47.520;18.920;2022-09-02T08:59:25;2.80;;;1.58;;
42518;SDS011;28147;47.520;18.920;2022-09-02T09:07:30;1.17;;;0.70;;
42518;SDS011;28147;47.520;18.920;2022-09-02T09:15:55;2.08;;;0.90;;
42518;SDS011;28147;47.520;18.920;2022-09-02T09:18:32;0.95;;;0.70;;
42518;SDS011;28147;47.520;18.920;2022-09-02T09:21:07;1.25;;;0.60;;
42518;SDS011;28147;47.520;18.920;2022-09-02T09:23:33;0.60;;;0.40;;
42518;SDS011;28147;47.520;18.920;2022-09-02T09:26:12;2.45;;;0.93;;
42518;SDS011;28147;47.520;18.920;2022-09-02T09:28:45;3.45;;;1.17;;
42518;SDS011;28147;47.520;18.920;2022-09-02T09:31:21;2.08;;;0.80;;
42518;SDS011;28147;47.520;18.920;2022-09-02T09:36:44;2.25;;;0.82;;
42518;SDS011;28147;47.520;18.920;2022-09-02T09:39:22;12.10;;;2.47;;
42518;SDS011;28147;47.520;18.920;2022-09-02T09:42:00;3.78;;;1.08;;
42518;SDS011;28147;47.520;18.920;2022-09-02T09:47:08;1.50;;;0.80;;
42518;SDS011;28147;47.520;18.920;2022-09-02T09:49:38;1.60;;;0.95;;
42518;SDS011;28147;47.520;18.920;2022-09-02T09:52:04;2.00;;;0.90;;
42518;SDS011;28147;47.520;18.920;2022-09-02T09:54:30;1.88;;;0.77;;
42518;SDS011;28147;47.520;18.920;2022-09-02T09:57:11;2.10;;;0.95;;
42518;SDS011;28147;47.520;18.920;2022-09-02T09:59:41;2.17;;;0.90;;
42518;SDS011;28147;47.520;18.920;2022-09-02T10:02:22;5.65;;;1.40;;
42518;SDS011;28147;47.520;18.920;2022-09-02T10:04:50;5.18;;;1.15;;
42518;SDS011;28147;47.520;18.920;2022-09-02T10:07:40;2.15;;;1.05;;
42518;SDS011;28147;47.520;18.920;2022-09-02T10:12:43;2.28;;;0.85;;
42518;SDS011;28147;47.520;18.920;2022-09-02T10:15:10;3.53;;;1.35;;
42518;SDS011;28147;47.520;18.920;2022-09-02T10:23:14;2.50;;;1.65;;
42518;SDS011;28147;47.520;18.920;2022-09-02T10:34:14;1.58;;;1.02;;
42518;SDS011;28147;47.520;18.920;2022-09-02T10:51:01;1.83;;;1.10;;
42518;SDS011;28147;47.520;18.920;2022-09-02T10:56:42;2.45;;;0.90;;
42518;SDS011;28147;47.520;18.920;2022-09-02T10:59:19;1.33;;;0.80;;
42518;SDS011;28147;47.520;18.920;2022-09-02T11:02:08;4.03;;;1.25;;
42518;SDS011;28147;47.520;18.920;2022-09-02T11:04:45;1.67;;;1.00;;
42518;SDS011;28147;47.520;18.920;2022-09-02T11:07:16;2.60;;;0.95;;
42518;SDS011;28147;47.520;18.920;2022-09-02T11:09:58;1.35;;;1.05;;
42518;SDS011;28147;47.520;18.920;2022-09-02T11:12:31;2.22;;;1.50;;
42518;SDS011;28147;47.520;18.920;2022-09-02T11:15:09;3.30;;;1.17;;
42518;SDS011;28147;47.520;18.920;2022-09-02T11:17:58;3.05;;;1.33;;
42518;SDS011;28147;47.520;18.920;2022-09-02T11:20:37;2.53;;;0.85;;
42518;SDS011;28147;47.520;18.920;2022-09-02T11:28:37;3.25;;;1.27;;
42518;SDS011;28147;47.520;18.920;2022-09-02T11:33:56;3.72;;;1.15;;
42518;SDS011;28147;47.520;18.920;2022-09-02T11:36:26;1.58;;;1.08;;
42518;SDS011;28147;47.520;18.920;2022-09-02T11:44:36;2.05;;;0.75;;
42518;SDS011;28147;47.520;18.920;2022-09-02T11:56:03;1.17;;;0.80;;
42518;SDS011;28147;47.520;18.920;2022-09-02T11:58:45;0.98;;;0.75;;
42518;SDS011;28147;47.520;18.920;2022-09-02T12:03:40;1.42;;;0.85;;
42518;SDS011;28147;47.520;18.920;2022-09-02T12:06:10;2.65;;;0.88;;
42518;SDS011;28147;47.520;18.920;2022-09-02T12:11:07;2.08;;;0.80;;
42518;SDS011;28147;47.520;18.920;2022-09-02T12:21:18;2.53;;;1.02;;
42518;SDS011;28147;47.520;18.920;2022-09-02T12:28:49;2.08;;;0.80;;
42518;SDS011;28147;47.520;18.920;2022-09-02T12:33:54;2.17;;;0.80;;
42518;SDS011;28147;47.520;18.920;2022-09-02T12:41:55;2.40;;;1.25;;
42518;SDS011;28147;47.520;18.920;2022-09-02T12:52:41;1.55;;;0.85;;
42518;SDS011;28147;47.520;18.920;2022-09-02T12:55:28;2.85;;;0.88;;
42518;SDS011;28147;47.520;18.920;2022-09-02T13:01:00;2.10;;;1.30;;
42518;SDS011;28147;47.520;18.920;2022-09-02T13:26:02;3.35;;;1.23;;
42518;SDS011;28147;47.520;18.920;2022-09-02T13:31:31;1.85;;;1.00;;
42518;SDS011;28147;47.520;18.920;2022-09-02T13:34:00;2.13;;;0.88;;
42518;SDS011;28147;47.520;18.920;2022-09-02T13:36:35;2.20;;;1.10;;
42518;SDS011;28147;47.520;18.920;2022-09-02T13:41:42;2.83;;;0.95;;
42518;SDS011;28147;47.520;18.920;2022-09-02T13:44:12;4.32;;;1.00;;
42518;SDS011;28147;47.520;18.920;2022-09-02T13:46:49;3.47;;;1.35;;
42518;SDS011;28147;47.520;18.920;2022-09-02T13:49:25;2.75;;;1.00;;
42518;SDS011;28147;47.520;18.920;2022-09-02T13:51:56;1.42;;;0.70;;
42518;SDS011;28147;47.520;18.920;2022-09-02T13:54:25;2.28;;;1.10;;
42518;SDS011;28147;47.520;18.920;2022-09-02T13:56:54;1.88;;;1.10;;
42518;SDS011;28147;47.520;18.920;2022-09-02T13:59:33;3.35;;;1.33;;
42518;SDS011;28147;47.520;18.920;2022-09-02T14:04:54;3.35;;;1.42;;
42518;SDS011;28147;47.520;18.920;2022-09-02T14:08:03;2.50;;;1.35;;
42518;SDS011;28147;47.520;18.920;2022-09-02T14:10:23;1.92;;;1.20;;
42518;SDS011;28147;47.520;18.920;2022-09-02T14:12:52;3.80;;;1.27;;
42518;SDS011;28147;47.520;18.920;2022-09-02T14:15:23;2.05;;;1.15;;
42518;SDS011;28147;47.520;18.920;2022-09-02T14:18:05;2.58;;;1.40;;
42518;SDS011;28147;47.520;18.920;2022-09-02T14:20:39;3.13;;;1.10;;
42518;SDS011;28147;47.520;18.920;2022-09-02T14:23:19;1.38;;;0.90;;
42518;SDS011;28147;47.520;18.920;2022-09-02T14:25:53;3.03;;;1.10;;
42518;SDS011;28147;47.520;18.920;2022-09-02T14:28:22;1.08;;;0.77;;
42518;SDS011;28147;47.520;18.920;2022-09-02T14:30:54;2.22;;;0.90;;
42518;SDS011;28147;47.520;18.920;2022-09-02T14:33:25;2.22;;;1.10;;
42518;SDS011;28147;47.520;18.920;2022-09-02T14:35:55;2.67;;;1.20;;
42518;SDS011;28147;47.520;18.920;2022-09-02T14:38:24;2.72;;;1.27;;
42518;SDS011;28147;47.520;18.920;2022-09-02T14:40:58;2.80;;;1.10;;
42518;SDS011;28147;47.520;18.920;2022-09-02T14:43:25;1.77;;;1.00;;
42518;SDS011;28147;47.520;18.920;2022-09-02T14:46:02;1.88;;;1.10;;
42518;SDS011;28147;47.520;18.920;2022-09-02T14:48:29;2.35;;;1.52;;
42518;SDS011;28147;47.520;18.920;2022-09-02T14:51:02;2.63;;;1.17;;
42518;SDS011;28147;47.520;18.920;2022-09-02T14:53:30;2.28;;;1.15;;
42518;SDS011;28147;47.520;18.920;2022-09-02T14:55:56;3.45;;;1.13;;
42518;SDS011;28147;47.520;18.920;2022-09-02T14:58:23;1.77;;;1.02;;
42518;SDS011;28147;47.520;18.920;2022-09-02T15:00:52;2.47;;;0.90;;
42518;SDS011;28147;47.520;18.920;2022-09-02T15:03:22;2.05;;;1.17;;
42518;SDS011;28147;47.520;18.920;2022-09-02T15:05:48;2.30;;;1.00;;
42518;SDS011;28147;47.520;18.920;2022-09-02T15:08:14;2.65;;;1.20;;
42518;SDS011;28147;47.520;18.920;2022-09-02T15:10:40;1.63;;;0.90;;
42518;SDS011;28147;47.520;18.920;2022-09-02T15:13:09;1.38;;;0.90;;
42518;SDS011;28147;47.520;18.920;2022-09-02T15:15:37;6.50;;;1.07;;
42518;SDS011;28147;47.520;18.920;2022-09-02T15:18:03;2.33;;;1.05;;
42518;SDS011;28147;47.520;18.920;2022-09-02T15:20:29;3.30;;;1.20;;
42518;SDS011;28147;47.520;18.920;2022-09-02T15:22:55;3.40;;;1.13;;
42518;SDS011;28147;47.520;18.920;2022-09-02T15:25:20;2.25;;;0.90;;
42518;SDS011;28147;47.520;18.920;2022-09-02T15:27:46;1.58;;;0.95;;
42518;SDS011;28147;47.520;18.920;2022-09-02T15:30:11;3.33;;;1.23;;
42518;SDS011;28147;47.520;18.920;2022-09-02T15:32:37;2.17;;;1.10;;
42518;SDS011;28147;47.520;18.920;2022-09-02T15:35:03;2.65;;;1.30;;
42518;SDS011;28147;47.520;18.920;2022-09-02T15:37:32;1.88;;;1.00;;
42518;SDS011;28147;47.520;18.920;2022-09-02T15:40:01;2.60;;;1.27;;
42518;SDS011;28147;47.520;18.920;2022-09-02T15:42:29;1.90;;;0.95;;
42518;SDS011;28147;47.520;18.920;2022-09-02T15:44:54;2.78;;;1.42;;
42518;SDS011;28147;47.520;18.920;2022-09-02T15:47:20;1.70;;;1.05;;
42518;SDS011;28147;47.520;18.920;2022-09-02T15:49:45;2.55;;;1.02;;
42518;SDS011;28147;47.520;18.920;2022-09-02T15:52:10;2.42;;;1.45;;
42518;SDS011;28147;47.520;18.920;2022-09-02T15:54:36;2.15;;;0.98;;
42518;SDS011;28147;47.520;18.920;2022-09-02T15:57:01;1.85;;;1.10;;
42518;SDS011;28147;47.520;18.920;2022-09-02T15:59:27;2.47;;;1.10;;
42518;SDS011;28147;47.520;18.920;2022-09-02T16:01:54;3.50;;;1.90;;
42518;SDS011;28147;47.520;18.920;2022-09-02T16:04:21;1.60;;;1.02;;
42518;SDS011;28147;47.520;18.920;2022-09-02T16:06:47;2.25;;;1.05;;
42518;SDS011;28147;47.520;18.920;2022-09-02T16:09:16;4.40;;;1.27;;
42518;SDS011;28147;47.520;18.920;2022-09-02T16:11:46;3.70;;;1.70;;
42518;SDS011;28147;47.520;18.920;2022-09-02T16:14:13;4.40;;;1.75;;
42518;SDS011;28147;47.520;18.920;2022-09-02T16:16:39;3.88;;;1.80;;
42518;SDS011;28147;47.520;18.920;2022-09-02T16:19:05;2.97;;;1.58;;
42518;SDS011;28147;47.520;18.920;2022-09-02T16:21:33;6.40;;;1.77;;
42518;SDS011;28147;47.520;18.920;2022-09-02T16:23:59;3.38;;;1.70;;
42518;SDS011;28147;47.520;18.920;2022-09-02T16:26:32;3.55;;;1.55;;
42518;SDS011;28147;47.520;18.920;2022-09-02T16:28:59;3.58;;;1.60;;
42518;SDS011;28147;47.520;18.920;2022-09-02T16:31:39;4.97;;;1.80;;
42518;SDS011;28147;47.520;18.920;2022-09-02T16:34:06;4.13;;;1.55;;
42518;SDS011;28147;47.520;18.920;2022-09-02T16:36:34;4.10;;;1.73;;
42518;SDS011;28147;47.520;18.920;2022-09-02T16:39:02;4.03;;;1.52;;
42518;SDS011;28147;47.520;18.920;2022-09-02T16:41:33;3.55;;;1.58;;
42518;SDS011;28147;47.520;18.920;2022-09-02T16:44:01;3.60;;;1.67;;
42518;SDS011;28147;47.520;18.920;2022-09-02T16:46:33;2.90;;;1.70;;
42518;SDS011;28147;47.520;18.920;2022-09-02T16:49:00;2.75;;;1.50;;
42518;SDS011;28147;47.520;18.920;2022-09-02T16:51:26;4.45;;;1.60;;
42518;SDS011;28147;47.520;18.920;2022-09-02T16:53:56;4.28;;;1.85;;
42518;SDS011;28147;47.520;18.920;2022-09-02T16:56:23;2.88;;;1.58;;
42518;SDS011;28147;47.520;18.920;2022-09-02T16:58:50;2.67;;;1.38;;
42518;SDS011;28147;47.520;18.920;2022-09-02T17:01:16;2.13;;;1.20;;
42518;SDS011;28147;47.520;18.920;2022-09-02T17:03:45;4.17;;;1.70;;
42518;SDS011;28147;47.520;18.920;2022-09-02T17:06:11;2.60;;;1.10;;
42518;SDS011;28147;47.520;18.920;2022-09-02T17:08:38;3.25;;;1.30;;
42518;SDS011;28147;47.520;18.920;2022-09-02T17:14:13;3.58;;;1.48;;